createdAt,value
2023-05-24T00:02:21.671Z,43.60
2023-05-24T00:04:49.787Z,44.20
2023-05-24T00:07:17.475Z,43.47
2023-05-24T00:09:45.051Z,43.70
2023-05-24T00:12:12.667Z,38.55
2023-05-24T00:14:40.251Z,40.38
2023-05-24T00:17:07.739Z,40.05
2023-05-24T00:19:38.585Z,35.78
2023-05-24T00:22:06.295Z,41.53
2023-05-24T00:24:33.873Z,39.72
2023-05-24T00:27:01.401Z,37.92
2023-05-24T00:29:30.790Z,41.60
2023-05-24T00:32:01.038Z,39.28
2023-05-24T00:34:28.721Z,42.05
2023-05-24T00:36:57.379Z,43.90
2023-05-24T00:39:24.974Z,43.47
2023-05-24T00:41:52.713Z,39.28
2023-05-24T00:44:20.321Z,39.47
2023-05-24T00:46:49.112Z,41.58
2023-05-24T00:49:16.786Z,40.33
2023-05-24T00:51:46.271Z,44.97
2023-05-24T00:54:15.416Z,42.00
2023-05-24T00:56:43.795Z,55.70
2023-05-24T00:59:11.444Z,53.22
2023-05-24T01:01:39.413Z,52.83
2023-05-24T01:04:07.773Z,48.53
2023-05-24T01:07:08.083Z,47.47
2023-05-24T01:09:58.118Z,47.58
2023-05-24T01:12:51.465Z,44.50
2023-05-24T01:15:28.727Z,62.27
2023-05-24T01:18:06.406Z,49.83
2023-05-24T01:20:35.410Z,59.72
2023-05-24T01:23:08.322Z,48.80
2023-05-24T01:25:42.303Z,64.47
2023-05-24T01:28:12.800Z,63.67
2023-05-24T01:30:42.280Z,62.95
2023-05-24T01:33:10.375Z,58.35
2023-05-24T01:35:41.609Z,62.42
2023-05-24T01:38:11.362Z,62.35
2023-05-24T01:40:40.681Z,66.72
2023-05-24T01:43:08.261Z,61.58
2023-05-24T01:45:48.973Z,51.85
2023-05-24T01:48:29.574Z,60.35
2023-05-24T01:51:01.125Z,59.83
2023-05-24T01:53:35.114Z,45.38
2023-05-24T01:56:06.002Z,56.45
2023-05-24T01:58:34.977Z,54.80
2023-05-24T02:01:03.532Z,46.75
2023-05-24T02:03:32.095Z,45.40
2023-05-24T02:05:59.661Z,40.70
2023-05-24T02:08:27.178Z,37.97
2023-05-24T02:10:54.806Z,39.33
2023-05-24T02:13:22.545Z,38.75
2023-05-24T02:15:50.258Z,44.08
2023-05-24T02:18:18.985Z,44.53
2023-05-24T02:20:47.311Z,44.65
2023-05-24T02:23:14.930Z,47.83
2023-05-24T02:25:42.441Z,44.85
2023-05-24T02:28:10.362Z,41.58
2023-05-24T02:30:38.789Z,40.78
2023-05-24T02:33:07.001Z,40.78
2023-05-24T02:35:34.732Z,39.03
2023-05-24T02:38:04.042Z,40.70
2023-05-24T02:40:31.648Z,43.33
2023-05-24T02:42:59.211Z,40.17
2023-05-24T02:45:26.730Z,38.65
2023-05-24T02:47:54.227Z,44.00
2023-05-24T02:50:21.749Z,43.83
2023-05-24T02:52:49.351Z,40.45
2023-05-24T02:55:16.868Z,44.67
2023-05-24T02:57:44.543Z,39.85
2023-05-24T03:00:12.873Z,44.50
2023-05-24T03:02:42.898Z,39.00
2023-05-24T03:05:10.635Z,45.67
2023-05-24T03:07:38.167Z,44.17
2023-05-24T03:10:07.224Z,44.92
2023-05-24T03:12:34.828Z,38.55
2023-05-24T03:15:02.497Z,44.20
2023-05-24T03:17:31.964Z,37.92
2023-05-24T03:20:00.409Z,37.95
2023-05-24T03:22:31.339Z,36.42
2023-05-24T03:24:58.949Z,41.95
2023-05-24T03:27:26.648Z,49.33
2023-05-24T03:29:55.087Z,41.65
2023-05-24T03:32:26.366Z,37.95
2023-05-24T03:34:53.960Z,46.95
2023-05-24T03:37:21.670Z,40.47
2023-05-24T03:39:49.280Z,40.47
2023-05-24T03:42:35.034Z,38.00
2023-05-24T03:45:02.585Z,42.05
2023-05-24T03:47:32.367Z,35.90
2023-05-24T03:50:00.131Z,37.33
2023-05-24T03:52:27.720Z,40.50
2023-05-24T03:54:55.412Z,35.92
2023-05-24T03:57:22.891Z,35.78
2023-05-24T03:59:50.418Z,34.22
2023-05-24T04:02:17.996Z,36.20
2023-05-24T04:04:46.159Z,34.22
2023-05-24T04:07:15.739Z,36.45
2023-05-24T04:09:43.754Z,39.03
2023-05-24T04:12:12.114Z,38.17
2023-05-24T04:14:42.364Z,34.85
2023-05-24T04:17:10.318Z,35.03
2023-05-24T04:19:38.019Z,32.08
2023-05-24T04:22:05.850Z,37.53
2023-05-24T04:24:33.435Z,36.75
2023-05-24T04:27:01.039Z,34.47
2023-05-24T04:29:28.908Z,30.27
2023-05-24T04:31:56.758Z,33.20
2023-05-24T04:34:25.878Z,30.58
2023-05-24T04:36:53.404Z,28.13
2023-05-24T04:39:21.152Z,28.95
2023-05-24T04:41:51.451Z,30.98
2023-05-24T04:44:19.637Z,32.38
2023-05-24T04:46:47.092Z,32.92
2023-05-24T04:49:14.640Z,29.08
2023-05-24T04:51:42.393Z,27.88
2023-05-24T04:54:10.120Z,24.25
2023-05-24T04:56:39.069Z,25.48
2023-05-24T04:59:07.802Z,24.80
2023-05-24T05:01:35.483Z,23.23
2023-05-24T05:04:06.790Z,27.98
2023-05-24T05:06:38.985Z,30.50
2023-05-24T05:09:10.806Z,24.65
2023-05-24T05:11:38.367Z,20.70
2023-05-24T05:14:06.703Z,26.17
2023-05-24T05:16:34.345Z,20.50
2023-05-24T05:19:04.967Z,27.35
2023-05-24T05:21:36.955Z,21.75
2023-05-24T05:24:04.482Z,24.02
2023-05-24T05:26:32.040Z,26.85
2023-05-24T05:28:59.577Z,22.77
2023-05-24T05:31:27.128Z,20.63
2023-05-24T05:33:54.620Z,23.35
2023-05-24T05:36:22.105Z,24.35
2023-05-24T05:38:49.637Z,23.55
2023-05-24T05:41:18.330Z,23.67
2023-05-24T05:43:46.143Z,20.90
2023-05-24T05:46:15.955Z,18.30
2023-05-24T05:48:45.668Z,18.65
2023-05-24T05:51:14.382Z,19.70
2023-05-24T05:53:41.966Z,19.98
2023-05-24T05:56:09.494Z,22.80
2023-05-24T05:58:39.158Z,21.60
2023-05-24T06:01:06.629Z,19.42
2023-05-24T06:03:34.512Z,20.88
2023-05-24T06:06:02.317Z,19.80
2023-05-24T06:08:35.365Z,17.70
2023-05-24T06:11:03.629Z,15.77
2023-05-24T06:13:33.205Z,18.30
2023-05-24T06:16:01.597Z,16.73
2023-05-24T06:18:30.833Z,16.40
2023-05-24T06:20:58.370Z,16.75
2023-05-24T06:23:26.070Z,17.52
2023-05-24T06:25:53.513Z,17.35
2023-05-24T06:28:21.111Z,15.90
2023-05-24T06:30:48.706Z,16.30
2023-05-24T06:33:16.541Z,18.05
2023-05-24T06:35:44.153Z,18.90
2023-05-24T06:38:11.744Z,18.50
2023-05-24T06:40:39.462Z,14.10
2023-05-24T06:43:07.161Z,15.23
2023-05-24T06:45:34.717Z,15.65
2023-05-24T06:48:02.605Z,14.25
2023-05-24T06:50:30.249Z,16.40
2023-05-24T06:52:57.790Z,16.85
2023-05-24T06:55:25.280Z,17.67
2023-05-24T06:57:52.791Z,18.20
2023-05-24T07:00:20.982Z,15.35
2023-05-24T07:02:48.545Z,16.70
2023-05-24T07:05:16.307Z,13.93
2023-05-24T07:07:44.330Z,15.95
2023-05-24T07:10:12.601Z,15.02
2023-05-24T07:12:40.237Z,14.75
2023-05-24T07:15:09.045Z,14.07
2023-05-24T07:17:36.841Z,15.63
2023-05-24T07:20:07.659Z,12.27
2023-05-24T07:22:35.228Z,15.23
2023-05-24T07:25:03.301Z,14.25
2023-05-24T07:27:31.015Z,11.73
2023-05-24T07:29:58.990Z,12.98
2023-05-24T07:32:27.218Z,15.38
2023-05-24T07:34:55.634Z,13.15
2023-05-24T07:37:24.909Z,13.50
2023-05-24T07:39:52.546Z,12.40
2023-05-24T07:42:21.024Z,14.43
2023-05-24T07:44:48.574Z,12.93
2023-05-24T07:47:16.222Z,15.98
2023-05-24T07:49:43.735Z,12.90
2023-05-24T07:52:11.273Z,18.55
2023-05-24T07:54:38.753Z,13.55
2023-05-24T07:57:09.311Z,19.50
2023-05-24T07:59:37.131Z,15.60
2023-05-24T08:02:05.965Z,16.90
2023-05-24T08:04:33.710Z,16.13
2023-05-24T08:07:03.110Z,15.63
2023-05-24T08:09:34.053Z,14.10
2023-05-24T08:12:02.693Z,15.30
2023-05-24T08:14:30.329Z,14.45
2023-05-24T08:16:58.030Z,13.07
2023-05-24T08:19:25.630Z,19.73
2023-05-24T08:21:53.526Z,18.27
2023-05-24T08:24:21.352Z,15.80
2023-05-24T08:26:50.155Z,18.73
2023-05-24T08:29:18.054Z,15.25
2023-05-24T08:31:45.568Z,15.68
2023-05-24T08:34:14.013Z,17.52
2023-05-24T08:36:44.089Z,14.75
2023-05-24T08:39:11.758Z,16.52
2023-05-24T08:41:39.544Z,15.18
2023-05-24T08:44:10.375Z,14.60
2023-05-24T08:46:39.579Z,17.98
2023-05-24T08:49:09.613Z,13.90
2023-05-24T08:51:38.877Z,14.93
2023-05-24T08:54:07.897Z,15.52
2023-05-24T08:56:35.757Z,17.13
2023-05-24T08:59:03.356Z,16.70
2023-05-24T09:01:32.817Z,16.92
2023-05-24T09:04:05.108Z,17.07
2023-05-24T09:06:33.751Z,15.48
2023-05-24T09:09:04.189Z,16.77
2023-05-24T09:11:33.067Z,16.60
2023-05-24T09:14:01.080Z,16.38
2023-05-24T09:16:28.785Z,16.63
2023-05-24T09:18:56.700Z,17.00
2023-05-24T09:21:25.458Z,17.88
2023-05-24T09:23:54.524Z,24.20
2023-05-24T09:26:22.466Z,18.30
2023-05-24T09:28:51.679Z,20.08
2023-05-24T09:31:19.285Z,17.80
2023-05-24T09:33:49.678Z,16.92
2023-05-24T09:36:17.815Z,17.02
2023-05-24T09:38:45.383Z,17.75
2023-05-24T09:41:13.209Z,17.88
2023-05-24T09:43:50.460Z,17.00
2023-05-24T09:46:22.101Z,17.50
2023-05-24T09:48:59.974Z,20.33
2023-05-24T09:51:27.558Z,21.83
2023-05-24T09:53:58.214Z,17.70
2023-05-24T09:56:25.846Z,20.25
2023-05-24T09:58:55.218Z,23.38
2023-05-24T10:01:25.758Z,16.63
2023-05-24T10:03:55.697Z,22.00
2023-05-24T10:06:24.310Z,27.65
2023-05-24T10:08:52.660Z,27.38
2023-05-24T10:11:20.604Z,21.88
2023-05-24T10:13:51.450Z,24.08
2023-05-24T10:16:19.166Z,25.27
2023-05-24T10:18:46.725Z,20.73
2023-05-24T10:21:14.497Z,19.48
2023-05-24T10:23:44.928Z,22.05
2023-05-24T10:26:14.737Z,22.45
2023-05-24T10:28:55.376Z,21.63
2023-05-24T10:31:28.577Z,25.98
2023-05-24T10:34:06.506Z,21.00
2023-05-24T10:36:35.426Z,22.17
2023-05-24T10:39:03.825Z,21.45
2023-05-24T10:41:40.143Z,22.73
2023-05-24T10:44:12.813Z,22.25
2023-05-24T10:47:12.507Z,23.10
2023-05-24T10:50:05.434Z,20.85
2023-05-24T10:52:37.269Z,20.58
2023-05-24T10:55:09.976Z,22.38
2023-05-24T10:57:39.045Z,23.67
2023-05-24T11:03:03.230Z,23.73
2023-05-24T11:05:51.005Z,27.20
2023-05-24T11:08:28.656Z,23.42
2023-05-24T11:13:44.327Z,23.33
2023-05-24T11:16:38.750Z,21.83
2023-05-24T11:19:20.453Z,21.10
2023-05-24T11:21:50.902Z,21.48
2023-05-24T11:24:19.084Z,24.05
2023-05-24T11:26:47.497Z,26.95
2023-05-24T11:29:21.296Z,25.33
2023-05-24T11:31:51.027Z,22.25
2023-05-24T11:34:22.132Z,24.65
2023-05-24T11:36:50.446Z,21.20
2023-05-24T11:39:18.572Z,21.55
2023-05-24T11:41:47.798Z,24.55
2023-05-24T11:44:20.023Z,20.88
2023-05-24T11:46:47.671Z,22.10
2023-05-24T11:49:18.699Z,18.95
2023-05-24T11:51:46.694Z,17.95
2023-05-24T11:54:14.533Z,19.27
2023-05-24T11:56:42.001Z,20.05
2023-05-24T11:59:17.229Z,22.25
2023-05-24T12:01:45.070Z,23.35
2023-05-24T12:04:13.223Z,23.17
2023-05-24T12:06:43.318Z,23.27
2023-05-24T12:09:13.646Z,20.42
2023-05-24T12:11:42.469Z,19.05
2023-05-24T12:14:14.703Z,21.15
2023-05-24T12:16:46.852Z,22.80
2023-05-24T12:21:57.109Z,18.73
2023-05-24T12:24:26.833Z,21.05
2023-05-24T12:27:03.956Z,19.35
2023-05-24T12:29:40.679Z,18.25
2023-05-24T12:32:13.889Z,22.40
2023-05-24T12:37:15.240Z,19.95
2023-05-24T12:42:15.572Z,21.10
2023-05-24T12:44:43.176Z,21.88
2023-05-24T12:47:10.921Z,23.67
2023-05-24T12:49:38.586Z,18.85
2023-05-24T12:52:06.724Z,20.30
2023-05-24T12:54:34.666Z,21.23
2023-05-24T12:57:05.500Z,21.23
2023-05-24T12:59:34.172Z,23.85
2023-05-24T13:02:02.522Z,20.85
2023-05-24T13:04:32.124Z,20.67
2023-05-24T13:07:00.558Z,23.05
2023-05-24T13:09:28.210Z,19.48
2023-05-24T13:11:56.103Z,31.08
2023-05-24T13:14:23.723Z,21.52
2023-05-24T13:16:51.578Z,20.75
2023-05-24T13:19:19.330Z,25.73
2023-05-24T13:21:46.866Z,28.40
2023-05-24T13:24:16.552Z,23.70
2023-05-24T13:26:45.718Z,18.35
2023-05-24T13:31:45.115Z,17.40
2023-05-24T13:34:13.122Z,20.30
2023-05-24T13:36:40.837Z,17.70
2023-05-24T13:41:42.598Z,23.10
2023-05-24T13:44:10.870Z,23.27
2023-05-24T13:46:39.250Z,22.48
2023-05-24T13:49:08.111Z,26.13
2023-05-24T13:51:36.068Z,25.75
2023-05-24T13:54:05.284Z,21.45
2023-05-24T13:56:34.460Z,40.00
2023-05-24T13:59:03.048Z,21.55
2023-05-24T14:01:31.445Z,22.90
2023-05-24T14:04:00.631Z,21.80
2023-05-24T14:06:28.344Z,20.80
2023-05-24T14:08:55.988Z,21.95
2023-05-24T14:11:25.094Z,16.65
2023-05-24T14:16:24.813Z,18.95
2023-05-24T14:18:52.521Z,28.55
2023-05-24T14:21:21.937Z,26.65
2023-05-24T14:23:50.417Z,20.42
2023-05-24T14:26:19.099Z,23.15
2023-05-24T14:28:47.198Z,23.95
2023-05-24T14:31:14.980Z,23.08
2023-05-24T14:33:42.509Z,19.88
2023-05-24T14:36:10.156Z,23.35
2023-05-24T14:38:37.724Z,23.25
2023-05-24T14:41:05.254Z,24.50
2023-05-24T14:43:32.837Z,25.92
2023-05-24T14:46:00.421Z,25.17
2023-05-24T14:48:28.049Z,19.45
2023-05-24T14:50:55.633Z,17.40
2023-05-24T14:53:23.132Z,17.00
2023-05-24T14:55:50.706Z,17.63
2023-05-24T14:58:18.932Z,20.55
2023-05-24T15:00:46.610Z,18.52
2023-05-24T15:03:15.186Z,18.42
2023-05-24T15:05:43.314Z,21.40
2023-05-24T15:08:11.799Z,17.52
2023-05-24T15:10:39.735Z,24.25
2023-05-24T15:13:07.322Z,24.80
2023-05-24T15:15:34.845Z,25.92
2023-05-24T15:18:02.575Z,27.02
2023-05-24T15:20:30.168Z,26.98
2023-05-24T15:22:57.816Z,23.88
2023-05-24T15:25:25.312Z,28.40
2023-05-24T15:27:53.142Z,22.10
2023-05-24T15:30:21.201Z,20.20
2023-05-24T15:32:48.742Z,24.30
2023-05-24T15:35:17.479Z,22.23
2023-05-24T15:37:46.071Z,22.80
2023-05-24T15:40:15.419Z,20.55
2023-05-24T15:42:43.053Z,21.10
2023-05-24T15:45:11.419Z,21.77
2023-05-24T15:47:40.554Z,17.48
2023-05-24T15:50:09.297Z,17.38
2023-05-24T15:52:37.341Z,17.70
2023-05-24T15:55:05.211Z,25.77
2023-05-24T15:57:32.784Z,17.65
2023-05-24T16:00:00.356Z,22.25
2023-05-24T16:02:28.278Z,19.58
2023-05-24T16:04:57.555Z,20.65
2023-05-24T16:07:25.207Z,19.77
2023-05-24T16:09:52.963Z,26.85
2023-05-24T16:12:21.056Z,22.58
2023-05-24T16:14:48.746Z,17.25
2023-05-24T16:17:16.486Z,21.27
2023-05-24T16:19:46.793Z,17.20
2023-05-24T16:22:14.409Z,20.55
2023-05-24T16:24:42.270Z,16.38
2023-05-24T16:27:10.065Z,20.83
2023-05-24T16:29:38.487Z,26.60
2023-05-24T16:32:07.792Z,16.75
2023-05-24T16:34:51.948Z,14.85
2023-05-24T16:37:23.017Z,17.65
2023-05-24T16:39:50.585Z,18.90
2023-05-24T16:42:18.168Z,21.13
2023-05-24T16:44:45.814Z,16.48
2023-05-24T16:47:13.482Z,18.90
2023-05-24T16:49:41.017Z,15.90
2023-05-24T16:52:08.834Z,18.75
2023-05-24T16:54:36.346Z,21.45
2023-05-24T16:57:04.045Z,16.85
2023-05-24T16:59:31.639Z,19.63
2023-05-24T17:01:59.348Z,19.48
2023-05-24T17:04:26.961Z,17.75
2023-05-24T17:06:54.451Z,18.92
2023-05-24T17:09:22.127Z,18.90
2023-05-24T17:11:51.015Z,18.67
2023-05-24T17:14:18.718Z,18.80
2023-05-24T17:16:46.277Z,19.27
2023-05-24T17:19:14.492Z,19.25
2023-05-24T17:21:42.338Z,19.48
2023-05-24T17:24:09.932Z,20.65
2023-05-24T17:26:39.343Z,17.60
2023-05-24T17:29:07.108Z,18.55
2023-05-24T17:31:34.652Z,18.95
2023-05-24T17:34:02.473Z,18.80
2023-05-24T17:36:33.774Z,21.23
2023-05-24T17:39:01.394Z,21.23
2023-05-24T17:41:28.955Z,19.55
2023-05-24T17:43:56.567Z,21.20
2023-05-24T17:46:24.206Z,19.83
2023-05-24T17:48:52.300Z,19.00
2023-05-24T17:51:19.969Z,21.15
2023-05-24T17:53:47.656Z,23.00
2023-05-24T17:56:15.308Z,19.80
2023-05-24T17:58:43.342Z,20.02
2023-05-24T18:01:12.374Z,26.80
2023-05-24T18:03:41.328Z,22.48
2023-05-24T18:06:09.695Z,22.42
2023-05-24T18:08:41.423Z,21.98
2023-05-24T18:11:09.825Z,25.83
2023-05-24T18:13:38.848Z,25.60
2023-05-24T18:16:13.615Z,34.47
2023-05-24T18:18:41.681Z,21.55
2023-05-24T18:21:10.121Z,23.33
2023-05-24T18:23:38.524Z,24.48
2023-05-24T18:26:10.772Z,31.77
2023-05-24T18:28:39.228Z,30.38
2023-05-24T18:31:16.570Z,27.80
2023-05-24T18:33:44.171Z,30.50
2023-05-24T18:36:12.994Z,31.70
2023-05-24T18:38:40.852Z,37.83
2023-05-24T18:41:12.562Z,32.70
2023-05-24T18:43:40.655Z,36.55
2023-05-24T18:46:09.403Z,31.17
2023-05-24T18:48:36.852Z,30.27
2023-05-24T18:51:04.701Z,36.72
2023-05-24T18:53:32.336Z,34.75
2023-05-24T18:56:00.032Z,41.63
2023-05-24T18:58:27.598Z,31.25
2023-05-24T19:00:55.384Z,34.53
2023-05-24T19:03:23.056Z,29.55
2023-05-24T19:05:50.705Z,33.97
2023-05-24T19:08:18.665Z,37.58
2023-05-24T19:10:46.421Z,30.60
2023-05-24T19:13:13.956Z,29.92
2023-05-24T19:15:42.005Z,35.92
2023-05-24T19:18:09.682Z,37.22
2023-05-24T19:20:37.547Z,37.33
2023-05-24T19:23:05.412Z,31.55
2023-05-24T19:25:40.605Z,31.33
2023-05-24T19:28:09.142Z,37.13
2023-05-24T19:30:37.913Z,32.70
2023-05-24T19:33:06.908Z,28.80
2023-05-24T19:35:34.938Z,29.27
2023-05-24T19:38:02.438Z,25.27
2023-05-24T19:40:30.060Z,28.92
2023-05-24T19:42:57.653Z,34.40
2023-05-24T19:45:25.312Z,33.50
2023-05-24T19:47:53.020Z,27.63
2023-05-24T19:50:20.648Z,27.38
2023-05-24T19:52:48.250Z,29.65
2023-05-24T19:55:15.857Z,31.25
2023-05-24T19:57:43.392Z,31.20
2023-05-24T20:00:12.741Z,37.05
2023-05-24T20:02:40.431Z,31.45
2023-05-24T20:05:09.217Z,27.08
2023-05-24T20:07:37.085Z,29.05
2023-05-24T20:10:05.802Z,34.28
2023-05-24T20:12:34.884Z,29.80
2023-05-24T20:15:02.549Z,30.42
2023-05-24T20:17:31.597Z,30.67
2023-05-24T20:19:59.245Z,25.02
2023-05-24T20:22:26.923Z,25.17
2023-05-24T20:24:54.363Z,34.67
2023-05-24T20:27:22.038Z,33.55
2023-05-24T20:29:49.532Z,36.03
2023-05-24T20:32:17.341Z,41.97
2023-05-24T20:34:44.984Z,41.05
2023-05-24T20:37:12.447Z,44.03
2023-05-24T20:39:39.953Z,37.97
2023-05-24T20:42:08.532Z,44.92
2023-05-24T20:44:36.303Z,38.92
2023-05-24T20:47:03.865Z,35.38
2023-05-24T20:49:31.478Z,35.67
2023-05-24T20:51:59.160Z,39.22
2023-05-24T20:54:27.100Z,35.53
2023-05-24T20:56:54.688Z,35.53
2023-05-24T20:59:22.350Z,30.40
2023-05-24T21:01:50.082Z,30.92
2023-05-24T21:04:17.708Z,30.67
2023-05-24T21:06:45.316Z,29.38
2023-05-24T21:09:13.013Z,28.98
2023-05-24T21:11:40.922Z,27.15
2023-05-24T21:14:08.540Z,35.60
2023-05-24T21:16:36.769Z,31.52
2023-05-24T21:19:04.400Z,30.80
2023-05-24T21:21:31.952Z,32.80
2023-05-24T21:23:59.491Z,32.90
2023-05-24T21:26:27.043Z,35.88
2023-05-24T21:28:54.636Z,33.00
2023-05-24T21:31:23.189Z,30.77
2023-05-24T21:33:50.813Z,34.42
2023-05-24T21:36:18.958Z,31.45
2023-05-24T21:38:46.699Z,32.00
2023-05-24T21:41:14.437Z,28.45
2023-05-24T21:43:43.060Z,26.20
2023-05-24T21:46:10.695Z,27.23
2023-05-24T21:48:38.301Z,28.42
2023-05-24T21:51:06.394Z,31.27
2023-05-24T21:53:35.377Z,40.65
2023-05-24T21:56:03.172Z,37.20
2023-05-24T21:58:31.004Z,36.38
2023-05-24T22:00:58.568Z,31.65
2023-05-24T22:03:26.464Z,33.38
2023-05-24T22:05:54.064Z,36.47
2023-05-24T22:08:21.704Z,34.92
2023-05-24T22:10:49.278Z,39.67
2023-05-24T22:13:16.838Z,34.10
2023-05-24T22:15:44.996Z,33.42
2023-05-24T22:18:17.706Z,34.28
2023-05-24T22:20:45.538Z,35.80
2023-05-24T22:23:14.867Z,34.67
2023-05-24T22:25:42.930Z,34.45
2023-05-24T22:28:10.935Z,37.17
2023-05-24T22:30:38.607Z,34.90
2023-05-24T22:33:06.568Z,31.65
2023-05-24T22:35:34.302Z,30.33
2023-05-24T22:38:02.029Z,38.92
2023-05-24T22:40:29.819Z,31.42
2023-05-24T22:42:57.443Z,25.83
2023-05-24T22:45:25.161Z,31.13
2023-05-24T22:47:54.430Z,28.75
2023-05-24T22:50:22.148Z,36.30
2023-05-24T22:52:49.886Z,31.00
2023-05-24T22:55:17.612Z,31.92
2023-05-24T22:57:45.342Z,30.40
2023-05-24T23:00:13.538Z,30.52
2023-05-24T23:02:41.267Z,32.90
2023-05-24T23:05:10.038Z,32.72
2023-05-24T23:07:38.471Z,36.53
2023-05-24T23:10:06.636Z,31.48
2023-05-24T23:12:34.813Z,36.50
2023-05-24T23:15:02.537Z,35.80
2023-05-24T23:17:31.614Z,35.80
2023-05-24T23:19:59.677Z,39.50
2023-05-24T23:22:27.429Z,37.95
2023-05-24T23:24:55.050Z,34.50
2023-05-24T23:27:22.860Z,35.47
2023-05-24T23:29:50.663Z,35.20
2023-05-24T23:32:18.348Z,35.85
2023-05-24T23:34:46.156Z,36.45
2023-05-24T23:37:14.021Z,35.88
2023-05-24T23:39:41.755Z,35.85
2023-05-24T23:42:09.455Z,31.80
2023-05-24T23:44:37.198Z,38.53
2023-05-24T23:47:05.178Z,41.47
2023-05-24T23:49:33.145Z,36.03
2023-05-24T23:52:00.908Z,41.72
2023-05-24T23:54:28.652Z,34.17
2023-05-24T23:56:56.493Z,32.95
2023-05-24T23:59:24.195Z,39.20
